EHBK/MST METAR and TAF weather

Enter ICAO airport designator
Station Type Date Time Source
EHBK METAR 2023/02/04 03:25 UTC NOAA

EHBK 040325Z AUTO 25002KT 9999 OVC032 05/05 Q1033


Station Type Date Time Source
EHBK Decoded METAR 2023/02/04 03:25 UTC NOAA

Maastricht Airport Zuid Limburg, Netherlands (EHBK) 50-55N 005-47E 116M
Feb 03, 2023 - 10:25 PM EST / 2023.02.04 0325 UTC
Wind: from the WSW (250 degrees) at 2 MPH (2 KT):0
Visibility: greater than 7 mile(s):0
Sky conditions: overcast
Temperature: 41 F (5 C)
Dew Point: 41 F (5 C)
Relative Humidity: 100%
Pressure (altimeter): 30.50 in. Hg (1033 hPa)
ob: EHBK 040325Z AUTO 25002KT 9999 OVC032 05/05 Q1033
cycle: 3

Station Type Date Time Source
EHBK TAF 2023/02/03 21:07 UTC NOAA

TAF
AMD EHBK 032103Z 0321/0424 30005KT 9999 BKN018
TEMPO 0319/0402 2000 DZ BKN001

Example: see airport list